TAF Text Data
IDs:
Format:
Raw Decoded Include METAR

Data at: 0826 UTC 24 Sep 2018

Region: TOP
KATL 240755Z 2408/2512 11006KT P6SM SCT060 BKN120
  FM241100 10007KT P6SM SCT008 BKN012
  FM241400 11008KT P6SM VCSH BKN015 OVC025
  FM241700 12009KT P6SM VCSH BKN040
  PROB30 2417/2423 6SM TSRA BKN035CB
  FM250000 11010KT P6SM VCSH SCT015 BKN040 OVC180
  FM250400 11010KT P6SM OVC030
  FM250800 12007KT P6SM OVC007


KBOS 240811Z 2408/2512 02009KT P6SM SCT250
  FM241000 04014G21KT P6SM BKN250
  FM241200 05016G27KT P6SM BKN025
  FM241600 06015KT P6SM BKN040
  FM242200 08013KT P6SM SCT250


KBWI 240534Z 2406/2512 04007KT 6SM BR OVC006
  FM241400 07009KT P6SM -RA OVC008
  FM251000 11008KT P6SM -RA OVC008


KCLE 240536Z 2406/2512 10005KT P6SM SCT250
  FM241500 13009KT P6SM OVC045
  FM241800 15011KT P6SM OVC030
  FM242000 15012KT 6SM -SHRA BR OVC015
  FM250800 17015G25KT 5SM -SHRA OVC015


KCLT 240801Z 2408/2512 05006KT 6SM BR OVC006
  TEMPO 2408/2412 5SM BR
  FM241600 05008KT P6SM OVC016
  FM241800 05008KT P6SM BKN023
  FM242100 06010KT P6SM BKN035
  PROB30 2423/2503 4SM -SHRA BR OVC025
  FM250300 07006KT P6SM BKN019
  FM250600 08004KT P6SM BKN009


KCVG 240536Z 2406/2512 09008KT P6SM VCSH OVC012
  FM241000 10006KT 5SM -SHRA OVC006
  FM241400 14009KT 3SM -RA BR OVC012
  FM242000 14009KT 5SM -RA OVC022
  FM250200 15012KT P6SM VCSH SCT025 OVC040


KDCA 240534Z 2406/2512 02008KT 5SM -RA BR OVC007
  FM241800 08009KT P6SM -RA OVC008
  FM251000 11007KT P6SM -RA OVC008


KDEN 240735Z 2408/2512 22010KT P6SM SCT150 SCT200
  FM241000 36010KT P6SM FEW050 SCT080 BKN120
  FM241400 05007KT 6SM FU SCT060 BKN100
  FM241900 10006KT P6SM VCSH FEW080 BKN120
  FM242200 33008KT P6SM SCT100 BKN200
  FM250200 08007KT P6SM FEW080 SCT140
  FM250600 19007KT P6SM SCT140


KDFW 240520Z 2406/2512 01005KT 6SM -DZ BR OVC005
  FM240800 01004KT 6SM -DZ BR OVC004
  FM241400 32004KT 6SM -DZ BR OVC008
  FM241700 29005KT P6SM SCT008 BKN015
  FM241900 27005KT P6SM SCT015 BKN025
  FM242100 17006KT P6SM SCT030 BKN050


KDTW 240520Z 2406/2512 08004KT P6SM SKC
  FM240900 09005KT P6SM SCT020
  FM241500 11010KT P6SM BKN020 OVC045
  FM242000 12010KT 6SM -DZ BR OVC010
  FM250100 15008KT 4SM -SHRA BR OVC010


KEWR 240538Z 2406/2512 03006KT P6SM FEW025 BKN045 BKN240
  FM241100 04008KT P6SM SCT045 BKN250
  FM241500 06010G16KT P6SM SCT025 BKN050
  FM242000 09013G18KT P6SM SCT025 BKN050
  FM250300 09012G19KT 6SM -RA BKN025 BKN050


KFLL 240535Z 2406/2512 10007KT P6SM VCSH SCT025 SCT250
  FM241300 09010KT P6SM VCSH SCT025 SCT060
  FM250000 09005KT P6SM FEW025 SCT250
  FM251100 10007KT P6SM VCSH SCT025 SCT150


KIAD 240534Z 2406/2512 02007KT 6SM -DZ BR OVC006
  FM241500 07008KT P6SM -RA OVC007
  FM250800 11006KT P6SM -RA OVC007


KIAH 240520Z 2406/2512 VRB03KT P6SM SCT025 BKN035
  FM241100 VRB03KT P6SM SCT008 SCT025
  FM241900 26006KT P6SM SCT030 SCT250
  FM250100 18005KT P6SM SCT250


KJFK 240538Z 2406/2512 03006KT P6SM FEW020 BKN045 BKN240
  FM241000 05010KT P6SM SCT045 BKN250
  FM241500 08015G20KT P6SM SCT025 BKN050
  FM242000 08018G24KT P6SM SCT025 BKN050
  FM250300 09017G24KT 6SM -RA BKN025 BKN050


KLAS 240520Z 2406/2512 20007KT P6SM SKC
  FM241200 VRB04KT P6SM SCT250
  FM242100 22009G16KT P6SM FEW120 BKN250
  FM250200 21008KT P6SM SCT250


KLAX 240820Z 2408/2512 23006KT P6SM SCT009 OVC012
  FM240900 VRB03KT P6SM OVC009
  FM241300 VRB03KT P6SM OVC012
  FM241800 25012KT P6SM SCT013
  FM250300 25006KT P6SM OVC010
  FM250900 VRB03KT P6SM OVC010


KLGA 240538Z 2406/2512 03007KT P6SM FEW025 BKN050 BKN250
  FM241000 05010KT P6SM SCT050 BKN250
  FM241500 06017KT P6SM SCT025 BKN050
  FM242000 08018G24KT P6SM SCT025 BKN050
  FM250300 09017G24KT 6SM -RA BKN025 BKN050


KMCO 240524Z 2406/2512 07003KT P6SM FEW250
  FM241400 10006KT P6SM FEW025 BKN040
  FM241800 10010KT P6SM VCSH SCT045 BKN250
  FM250000 07006KT P6SM FEW040 BKN250


KMDW 240528Z 2406/2512 11006KT P6SM SKC
  FM241800 14009KT P6SM OVC020
  FM250200 19006KT P6SM OVC015


KMEM 240520Z 2406/2512 16007KT P6SM -SHRA FEW008 BKN060
  TEMPO 2409/2413 4SM -RA BR BKN007
  FM241300 15006KT 6SM -SHRA BR SCT008 BKN015
  FM241700 16007KT P6SM VCSH SCT015 BKN025
  FM242000 15008KT P6SM VCTS SCT025 BKN035CB
  FM250100 15007KT P6SM VCSH SCT025 BKN060


KMIA 240535Z 2406/2512 07006KT P6SM VCSH FEW025 SCT250
  FM241400 09010KT P6SM VCSH SCT025 SCT060
  FM250000 09005KT P6SM FEW025 SCT250
  FM251100 10007KT P6SM VCSH SCT025 SCT150


KMSP 240520Z 2406/2512 15012KT P6SM BKN200
  FM241500 16014G22KT P6SM BKN150
  FM241900 20012G20KT P6SM BKN050
  FM242300 25008KT 5SM -RA OVC025
  FM250300 32006KT P6SM OVC012


KORD 240528Z 2406/2512 11006KT P6SM SKC
  FM241900 14009KT P6SM OVC020
  FM250200 19006KT P6SM OVC015


KPDX 240530Z 2406/2506 32007KT P6SM FEW060
  FM241100 VRB02KT P6SM SCT007
  FM241800 34006KT P6SM SCT060
  FM242200 35010KT P6SM SCT060


KPHL 240523Z 2406/2512 06007KT P6SM SCT009 OVC015
  TEMPO 2406/2410 5SM -RA BKN009
  FM241300 07008KT P6SM BKN020
  FM241700 08010G20KT P6SM SCT020 BKN040
  FM242300 08011KT 5SM -RA OVC020
  FM250300 09011KT 4SM -RA OVC015


KPHX 240820Z 2408/2512 VRB03KT P6SM SCT120 SCT250
  FM240900 11007KT P6SM BKN100
  FM242200 23006KT P6SM SCT100
  FM250000 27008KT P6SM FEW100
  FM250900 12005KT P6SM SKC


KPIT 240539Z 2406/2512 08006KT P6SM FEW025 BKN050
  FM241500 11012G16KT P6SM VCSH BKN040
  FM241900 13014G18KT P6SM -SHRA OVC025
  FM242300 12014G18KT P6SM -SHRA OVC015
  FM250200 13013KT P6SM VCSH OVC015
  FM250500 13012KT P6SM -RA OVC007


KSAN 240520Z 2406/2512 28006KT P6SM OVC015
  FM241700 VRB04KT P6SM SCT017
  FM242000 29011KT P6SM SKC
  FM250300 28005KT P6SM OVC015


KSEA 240520Z 2406/2512 05006KT P6SM BKN070
  FM241300 03004KT P6SM SCT015 SCT060
  TEMPO 2413/2417 BKN015 BKN060
  FM241800 35008KT P6SM FEW060


KSFO 240520Z 2406/2512 28010KT P6SM FEW010
  FM240900 VRB04KT P6SM FEW007
  TEMPO 2412/2416 SCT008
  FM242100 31014KT P6SM SKC
  FM250400 30009KT P6SM SKC


KSLC 240535Z 2406/2512 33011KT P6SM SCT100 SCT200
  FM240700 33006KT P6SM SKC


KSTL 240819Z 2408/2512 10007KT P6SM BKN015 OVC060
  FM241100 12007KT 6SM BR VCSH OVC007
  FM241900 15007KT P6SM OVC012
  FM250100 18007KT P6SM VCSH BKN035


KTPA 240536Z 2406/2512 08004KT P6SM SCT250
  FM241400 11006KT P6SM SCT025 SCT250
  FM241600 14006KT P6SM SCT035 SCT250
  FM241900 25007KT P6SM VCTS BKN050CB
  FM250000 06005KT P6SM VCTS SCT050CB SCT130 BKN250
  FM250300 VRB03KT P6SM SCT250